Time;durP1;ratioP1;P1;durP2;ratioP2;P2;SDS_P1;SDS_P2;PMS_P1;PMS_P2;Temp;Humidity;BMP_temperature;BMP_pressure;BME280_temperature;BME280_humidity;BME280_pressure;Samples;Min_cycle;Max_cycle;Signal;HPM_P1;HPM_P2
2022/01/24 00:02:12;;;;;;;0.40;0.40;;;;;;;;;;4413154;32;20140;-54
2022/01/24 00:04:40;;;;;;;0.20;0.20;;;;;;;;;;4407290;32;20039;-55
2022/01/24 00:07:09;;;;;;;0.32;0.32;;;;;;;;;;4409571;32;20100;-54
2022/01/24 00:09:38;;;;;;;0.20;0.20;;;;;;;;;;4414024;32;20038;-56
2022/01/24 00:12:24;;;;;;;0.30;0.30;;;;;;;;;;4405162;32;20132;-53
2022/01/24 00:15:05;;;;;;;0.55;0.40;;;;;;;;;;4409230;32;20502;-55
2022/01/24 00:28:13;;;;;;;0.40;0.40;;;;;;;;;;4407623;32;20354;-52
2022/01/24 00:30:41;;;;;;;0.40;0.30;;;;;;;;;;4416715;32;20101;-53
2022/01/24 00:33:10;;;;;;;0.30;0.30;;;;;;;;;;4411782;32;20035;-52
2022/01/24 00:35:38;;;;;;;0.28;0.25;;;;;;;;;;4409850;32;20049;-53
2022/01/24 00:38:06;;;;;;;0.30;0.30;;;;;;;;;;4406063;32;20030;-53
2022/01/24 00:40:40;;;;;;;0.43;0.30;;;;;;;;;;4413157;32;20065;-55
2022/01/24 00:43:20;;;;;;;0.30;0.30;;;;;;;;;;4407179;32;20377;-53
2022/01/24 00:48:36;;;;;;;0.37;0.37;;;;;;;;;;4417958;32;20161;-54
2022/01/24 00:54:53;;;;;;;0.62;0.30;;;;;;;;;;4415894;32;20081;-54
2022/01/24 00:56:50;;;;;;;0.30;0.30;;;;;;;;;;4412117;32;20084;-53
2022/01/24 00:59:19;;;;;;;0.55;0.35;;;;;;;;;;4408201;32;20097;-56
2022/01/24 01:01:47;;;;;;;0.40;0.40;;;;;;;;;;4408773;32;20103;-55
2022/01/24 01:04:16;;;;;;;0.73;0.40;;;;;;;;;;4404540;32;20026;-53
2022/01/24 01:06:46;;;;;;;0.32;0.32;;;;;;;;;;4411956;32;20035;-54
2022/01/24 01:20:26;;;;;;;0.30;0.30;;;;;;;;;;4406575;32;20091;-54
2022/01/24 01:22:55;;;;;;;0.30;0.30;;;;;;;;;;4407104;32;20148;-56
2022/01/24 01:25:24;;;;;;;0.30;0.30;;;;;;;;;;4411501;32;20042;-52
2022/01/24 01:27:54;;;;;;;0.43;0.20;;;;;;;;;;4409400;32;20075;-54
2022/01/24 01:30:33;;;;;;;0.30;0.30;;;;;;;;;;4413462;32;20073;-53
2022/01/24 01:33:11;;;;;;;0.30;0.30;;;;;;;;;;4416872;32;20111;-53
2022/01/24 01:36:01;;;;;;;0.75;0.37;;;;;;;;;;4411253;32;20087;-54
2022/01/24 01:52:25;;;;;;;0.45;0.30;;;;;;;;;;4408516;32;20076;-52
2022/01/24 01:55:12;;;;;;;0.20;0.20;;;;;;;;;;4408106;32;20063;-56
2022/01/24 01:57:41;;;;;;;0.55;0.30;;;;;;;;;;4415872;32;20031;-56
2022/01/24 02:00:10;;;;;;;0.28;0.28;;;;;;;;;;4406168;32;20039;-53
2022/01/24 02:02:38;;;;;;;0.30;0.30;;;;;;;;;;4408713;32;20076;-55
2022/01/24 02:05:07;;;;;;;0.57;0.30;;;;;;;;;;4405558;32;20038;-52
2022/01/24 02:07:44;;;;;;;0.37;0.30;;;;;;;;;;4405528;32;20083;-53
2022/01/24 02:10:13;;;;;;;0.30;0.30;;;;;;;;;;4405335;32;20053;-53
2022/01/24 02:12:42;;;;;;;0.30;0.30;;;;;;;;;;4407747;32;20512;-52
2022/01/24 02:15:12;;;;;;;0.30;0.30;;;;;;;;;;4407899;32;20042;-52
2022/01/24 02:23:36;;;;;;;0.40;0.20;;;;;;;;;;4413059;32;20046;-55
2022/01/24 02:26:06;;;;;;;0.20;0.20;;;;;;;;;;4408100;32;20437;-55
2022/01/24 02:31:47;;;;;;;0.20;0.20;;;;;;;;;;4405001;32;20449;-52
2022/01/24 02:34:36;;;;;;;0.20;0.20;;;;;;;;;;4414728;32;20096;-55
2022/01/24 02:37:06;;;;;;;0.30;0.30;;;;;;;;;;4402102;32;20376;-54
2022/01/24 02:51:16;;;;;;;0.30;0.30;;;;;;;;;;4409635;32;20046;-55
2022/01/24 02:53:12;;;;;;;0.40;0.40;;;;;;;;;;4401910;32;20098;-52
2022/01/24 02:55:41;;;;;;;0.30;0.30;;;;;;;;;;4409961;32;20043;-53
2022/01/24 02:58:09;;;;;;;0.30;0.30;;;;;;;;;;4414144;32;20038;-52
2022/01/24 03:00:38;;;;;;;0.47;0.32;;;;;;;;;;4405616;32;20422;-55
2022/01/24 03:03:07;;;;;;;0.30;0.30;;;;;;;;;;4418809;32;20365;-56
2022/01/24 03:05:35;;;;;;;0.30;0.30;;;;;;;;;;4409713;32;20044;-55
2022/01/24 03:08:05;;;;;;;0.40;0.37;;;;;;;;;;4417231;32;20034;-53
2022/01/24 03:10:41;;;;;;;0.40;0.40;;;;;;;;;;4409155;32;20080;-53
2022/01/24 03:15:54;;;;;;;1.15;0.30;;;;;;;;;;4404000;32;20077;-55
2022/01/24 03:18:23;;;;;;;0.25;0.25;;;;;;;;;;4407036;32;20086;-55
2022/01/24 03:20:51;;;;;;;0.40;0.40;;;;;;;;;;4409413;32;20034;-54
2022/01/24 03:23:20;;;;;;;0.20;0.20;;;;;;;;;;4403507;32;20057;-55
2022/01/24 03:25:49;;;;;;;0.30;0.30;;;;;;;;;;4409526;32;20034;-54
2022/01/24 03:28:22;;;;;;;0.52;0.30;;;;;;;;;;4416323;32;20034;-55
2022/01/24 03:30:51;;;;;;;0.32;0.32;;;;;;;;;;4411235;32;20433;-54
2022/01/24 03:33:19;;;;;;;0.43;0.37;;;;;;;;;;4412298;32;20672;-54
2022/01/24 03:35:47;;;;;;;0.30;0.30;;;;;;;;;;4413047;32;20094;-54
2022/01/24 03:38:16;;;;;;;0.30;0.30;;;;;;;;;;4417999;32;20035;-52
2022/01/24 03:40:44;;;;;;;0.45;0.45;;;;;;;;;;4413437;32;20058;-53
2022/01/24 03:43:12;;;;;;;0.30;0.30;;;;;;;;;;4416394;32;20115;-54
2022/01/24 03:48:22;;;;;;;0.98;0.40;;;;;;;;;;4411191;32;20039;-54
2022/01/24 03:50:51;;;;;;;0.30;0.30;;;;;;;;;;4409372;32;20065;-55
2022/01/24 03:53:19;;;;;;;0.30;0.30;;;;;;;;;;4405856;32;20429;-52
2022/01/24 03:55:48;;;;;;;0.20;0.20;;;;;;;;;;4411737;32;20034;-56
2022/01/24 03:58:16;;;;;;;1.23;0.30;;;;;;;;;;4411757;32;20038;-53
2022/01/24 04:00:45;;;;;;;0.30;0.30;;;;;;;;;;4420165;32;20038;-55
2022/01/24 04:03:14;;;;;;;0.30;0.30;;;;;;;;;;4409960;32;20031;-54
2022/01/24 04:05:43;;;;;;;0.30;0.30;;;;;;;;;;4404728;32;20063;-55
2022/01/24 04:08:11;;;;;;;0.25;0.25;;;;;;;;;;4409329;32;20051;-54
2022/01/24 04:10:46;;;;;;;0.30;0.30;;;;;;;;;;4410754;32;20061;-52
2022/01/24 04:23:53;;;;;;;0.20;0.20;;;;;;;;;;4422072;32;20405;-56
2022/01/24 04:26:21;;;;;;;0.30;0.30;;;;;;;;;;4404435;32;20091;-54
2022/01/24 04:28:50;;;;;;;0.30;0.30;;;;;;;;;;4410668;32;20072;-52
2022/01/24 04:31:19;;;;;;;0.20;0.20;;;;;;;;;;4410102;32;20114;-53
2022/01/24 04:33:48;;;;;;;0.30;0.30;;;;;;;;;;4410947;32;20049;-53
2022/01/24 04:36:16;;;;;;;0.40;0.40;;;;;;;;;;4411388;32;20098;-53
2022/01/24 04:38:45;;;;;;;0.20;0.20;;;;;;;;;;4404496;32;20059;-55
2022/01/24 04:41:21;;;;;;;0.40;0.35;;;;;;;;;;4413101;32;20043;-53
2022/01/24 04:46:55;;;;;;;0.30;0.30;;;;;;;;;;4387091;32;20058;-55
2022/01/24 04:54:42;;;;;;;0.30;0.30;;;;;;;;;;4409992;32;20130;-55
2022/01/24 04:57:11;;;;;;;0.30;0.30;;;;;;;;;;4405232;32;20421;-52
2022/01/24 04:59:40;;;;;;;0.30;0.30;;;;;;;;;;4407949;32;20031;-55
2022/01/24 05:02:09;;;;;;;0.30;0.20;;;;;;;;;;4405573;32;20118;-54
2022/01/24 05:04:37;;;;;;;0.20;0.20;;;;;;;;;;4413145;32;20331;-55
2022/01/24 05:07:06;;;;;;;0.25;0.25;;;;;;;;;;4419246;32;20038;-52
2022/01/24 05:09:40;;;;;;;0.30;0.30;;;;;;;;;;4410305;32;20061;-52
2022/01/24 05:12:19;;;;;;;0.30;0.30;;;;;;;;;;4403993;32;20083;-55
2022/01/24 05:25:53;;;;;;;0.20;0.20;;;;;;;;;;4418194;32;20382;-55
2022/01/24 05:28:22;;;;;;;0.20;0.20;;;;;;;;;;4412013;32;20365;-53
2022/01/24 05:30:50;;;;;;;0.30;0.30;;;;;;;;;;4413598;32;20065;-54
2022/01/24 05:33:19;;;;;;;0.30;0.30;;;;;;;;;;4408527;32;20444;-53
2022/01/24 05:35:49;;;;;;;0.30;0.30;;;;;;;;;;4406062;32;20437;-55
2022/01/24 05:38:17;;;;;;;0.30;0.30;;;;;;;;;;4411074;32;20145;-53
2022/01/24 05:40:46;;;;;;;0.20;0.20;;;;;;;;;;4408965;32;20066;-55
2022/01/24 05:43:14;;;;;;;0.30;0.30;;;;;;;;;;4407718;32;20022;-55
2022/01/24 05:45:42;;;;;;;0.35;0.30;;;;;;;;;;4414339;32;20488;-54
2022/01/24 05:48:11;;;;;;;0.20;0.20;;;;;;;;;;4408174;32;20124;-55
2022/01/24 05:50:39;;;;;;;0.30;0.30;;;;;;;;;;4413076;32;20065;-52
2022/01/24 05:53:08;;;;;;;0.20;0.20;;;;;;;;;;4410605;32;20082;-53
2022/01/24 05:55:36;;;;;;;0.30;0.20;;;;;;;;;;4409764;32;20047;-55
2022/01/24 05:58:05;;;;;;;0.40;0.40;;;;;;;;;;4412865;32;20046;-52
2022/01/24 06:00:33;;;;;;;0.30;0.30;;;;;;;;;;4414633;32;21292;-55
2022/01/24 06:03:02;;;;;;;0.30;0.30;;;;;;;;;;4410335;32;20354;-53
2022/01/24 06:05:31;;;;;;;0.30;0.30;;;;;;;;;;4407451;32;20048;-55
2022/01/24 06:07:59;;;;;;;0.30;0.30;;;;;;;;;;4409737;32;20075;-55
2022/01/24 06:10:27;;;;;;;0.30;0.30;;;;;;;;;;4413694;32;20057;-54
2022/01/24 06:12:56;;;;;;;0.32;0.32;;;;;;;;;;4404412;32;20453;-53
2022/01/24 06:15:25;;;;;;;0.20;0.20;;;;;;;;;;4401707;32;20387;-53
2022/01/24 06:17:54;;;;;;;0.35;0.20;;;;;;;;;;4403725;32;20026;-53
2022/01/24 06:20:23;;;;;;;0.30;0.30;;;;;;;;;;4410282;32;20035;-55
2022/01/24 06:22:51;;;;;;;0.25;0.25;;;;;;;;;;4405359;32;20043;-53
2022/01/24 06:25:23;;;;;;;0.30;0.30;;;;;;;;;;4414160;32;20090;-54
2022/01/24 06:27:52;;;;;;;0.30;0.30;;;;;;;;;;4414117;32;20107;-52
2022/01/24 06:30:20;;;;;;;0.20;0.20;;;;;;;;;;4408833;32;20057;-55
2022/01/24 06:32:48;;;;;;;0.30;0.30;;;;;;;;;;4408777;32;20056;-52
2022/01/24 06:35:17;;;;;;;0.20;0.20;;;;;;;;;;4406100;32;20049;-54
2022/01/24 06:37:46;;;;;;;0.20;0.20;;;;;;;;;;4410720;32;20497;-55
2022/01/24 06:40:14;;;;;;;0.30;0.30;;;;;;;;;;4415030;32;20108;-53
2022/01/24 06:42:42;;;;;;;0.30;0.30;;;;;;;;;;4410212;32;20031;-52
2022/01/24 06:45:11;;;;;;;0.35;0.35;;;;;;;;;;4403902;32;20049;-57
2022/01/24 06:47:44;;;;;;;0.20;0.20;;;;;;;;;;4402436;32;20073;-52
2022/01/24 06:50:13;;;;;;;0.30;0.30;;;;;;;;;;4406281;32;20046;-55
2022/01/24 06:52:41;;;;;;;0.40;0.30;;;;;;;;;;4411423;32;20106;-54
2022/01/24 06:55:09;;;;;;;0.30;0.30;;;;;;;;;;4408549;32;20061;-54
2022/01/24 06:57:38;;;;;;;0.30;0.30;;;;;;;;;;4410327;32;20038;-53
2022/01/24 07:00:07;;;;;;;0.20;0.20;;;;;;;;;;4408351;32;20042;-55
2022/01/24 07:02:35;;;;;;;0.20;0.20;;;;;;;;;;4410660;32;20144;-53
2022/01/24 07:05:05;;;;;;;0.10;0.10;;;;;;;;;;4408669;32;20113;-56
2022/01/24 07:07:33;;;;;;;0.20;0.20;;;;;;;;;;4410851;32;20085;-54
2022/01/24 07:10:02;;;;;;;0.20;0.20;;;;;;;;;;4402678;32;20177;-56
2022/01/24 07:12:51;;;;;;;0.17;0.17;;;;;;;;;;4403834;32;20042;-54
2022/01/24 07:15:22;;;;;;;0.20;0.20;;;;;;;;;;4411846;32;20038;-55
2022/01/24 07:20:19;;;;;;;2.17;0.30;;;;;;;;;;4416715;32;20056;-52
2022/01/24 07:22:47;;;;;;;0.20;0.20;;;;;;;;;;4407021;32;20130;-55
2022/01/24 07:25:16;;;;;;;0.20;0.20;;;;;;;;;;4406794;32;20099;-55
2022/01/24 07:27:44;;;;;;;0.95;0.30;;;;;;;;;;4412943;32;20046;-53
2022/01/24 07:30:12;;;;;;;0.20;0.20;;;;;;;;;;4413625;32;20071;-54
2022/01/24 07:32:45;;;;;;;3.10;0.40;;;;;;;;;;4407083;32;20062;-52
2022/01/24 07:35:13;;;;;;;3.53;0.30;;;;;;;;;;4413473;32;20104;-52
2022/01/24 07:37:42;;;;;;;0.20;0.20;;;;;;;;;;4417736;32;20076;-54
2022/01/24 07:40:12;;;;;;;0.20;0.20;;;;;;;;;;4411762;32;20459;-53
2022/01/24 07:42:54;;;;;;;0.20;0.20;;;;;;;;;;4414574;32;20054;-52
2022/01/24 07:45:23;;;;;;;1.60;0.20;;;;;;;;;;4411230;32;20096;-53
2022/01/24 07:47:57;;;;;;;0.20;0.20;;;;;;;;;;4408072;32;20054;-54
2022/01/24 07:50:27;;;;;;;0.20;0.20;;;;;;;;;;4410196;32;20042;-55
2022/01/24 07:52:56;;;;;;;0.20;0.20;;;;;;;;;;4409116;32;20030;-52
2022/01/24 07:55:25;;;;;;;1.62;0.20;;;;;;;;;;4415253;32;20327;-56
2022/01/24 07:57:53;;;;;;;0.20;0.20;;;;;;;;;;4413727;32;20096;-52
2022/01/24 08:00:22;;;;;;;0.28;0.20;;;;;;;;;;4402971;32;20412;-52
2022/01/24 08:02:50;;;;;;;0.30;0.30;;;;;;;;;;4411829;32;20042;-55
2022/01/24 08:05:19;;;;;;;0.20;0.20;;;;;;;;;;4408963;32;20101;-54
2022/01/24 08:07:48;;;;;;;0.20;0.20;;;;;;;;;;4407587;32;20049;-54
2022/01/24 08:10:17;;;;;;;1.30;0.20;;;;;;;;;;4408410;32;20383;-52
2022/01/24 08:12:45;;;;;;;0.52;0.40;;;;;;;;;;4407948;32;20825;-54
2022/01/24 08:15:14;;;;;;;1.02;0.20;;;;;;;;;;4407993;32;20138;-56
2022/01/24 08:17:43;;;;;;;0.55;0.20;;;;;;;;;;4408817;32;20041;-53
2022/01/24 08:20:13;;;;;;;0.52;0.30;;;;;;;;;;4402670;32;20049;-54
2022/01/24 08:23:01;;;;;;;0.73;0.25;;;;;;;;;;4398565;32;20355;-52
2022/01/24 08:25:30;;;;;;;0.20;0.20;;;;;;;;;;4403398;32;20064;-57
2022/01/24 08:27:59;;;;;;;0.20;0.20;;;;;;;;;;4411851;32;20034;-56
2022/01/24 08:30:29;;;;;;;0.30;0.30;;;;;;;;;;4410182;32;20061;-54
2022/01/24 08:32:58;;;;;;;0.20;0.20;;;;;;;;;;4408015;32;20023;-56
2022/01/24 08:35:26;;;;;;;0.20;0.20;;;;;;;;;;4403179;32;20337;-55
2022/01/24 08:37:55;;;;;;;0.20;0.20;;;;;;;;;;4416990;32;20049;-54
2022/01/24 08:40:26;;;;;;;1.12;0.20;;;;;;;;;;4417467;32;20079;-52
2022/01/24 08:43:00;;;;;;;0.73;0.20;;;;;;;;;;4407029;32;20460;-52
2022/01/24 08:48:10;;;;;;;0.20;0.20;;;;;;;;;;4413629;32;20481;-55
2022/01/24 08:50:39;;;;;;;0.45;0.20;;;;;;;;;;4404534;32;20429;-54
2022/01/24 08:53:08;;;;;;;0.73;0.20;;;;;;;;;;4407105;32;20074;-56
2022/01/24 08:55:37;;;;;;;0.20;0.20;;;;;;;;;;4408578;32;20080;-53
2022/01/24 08:58:07;;;;;;;0.10;0.10;;;;;;;;;;4409264;32;20034;-53
2022/01/24 09:00:35;;;;;;;0.20;0.20;;;;;;;;;;4407725;32;20022;-55
2022/01/24 09:03:04;;;;;;;0.20;0.20;;;;;;;;;;4412216;32;20128;-56
2022/01/24 09:05:35;;;;;;;0.52;0.10;;;;;;;;;;4414650;32;20030;-53
2022/01/24 09:08:05;;;;;;;0.20;0.20;;;;;;;;;;4402787;32;20068;-54
2022/01/24 09:10:34;;;;;;;0.25;0.25;;;;;;;;;;4412586;32;20111;-55
2022/01/24 09:13:03;;;;;;;0.52;0.13;;;;;;;;;;4413999;32;20373;-56
2022/01/24 09:15:31;;;;;;;0.35;0.30;;;;;;;;;;4411345;32;20097;-52
2022/01/24 09:18:00;;;;;;;0.20;0.20;;;;;;;;;;4414330;32;20056;-55
2022/01/24 09:20:28;;;;;;;0.10;0.10;;;;;;;;;;4406919;32;20121;-52
2022/01/24 09:22:57;;;;;;;0.20;0.20;;;;;;;;;;4408499;32;20064;-55
2022/01/24 09:25:25;;;;;;;0.20;0.20;;;;;;;;;;4406864;32;20027;-56
2022/01/24 09:27:53;;;;;;;0.10;0.10;;;;;;;;;;4412650;32;20091;-53
2022/01/24 09:30:23;;;;;;;0.30;0.28;;;;;;;;;;4409936;32;20091;-52
2022/01/24 09:32:52;;;;;;;0.20;0.20;;;;;;;;;;4409751;32;20097;-55
2022/01/24 09:35:21;;;;;;;0.28;0.28;;;;;;;;;;4406438;32;20058;-54
2022/01/24 09:37:51;;;;;;;0.20;0.20;;;;;;;;;;4414670;32;20060;-55
2022/01/24 09:40:19;;;;;;;0.20;0.20;;;;;;;;;;4409621;32;20068;-56
2022/01/24 09:42:48;;;;;;;0.22;0.20;;;;;;;;;;4403163;32;20057;-56
2022/01/24 09:45:17;;;;;;;1.65;0.15;;;;;;;;;;4411695;32;20041;-56
2022/01/24 09:47:46;;;;;;;1.75;0.30;;;;;;;;;;4408520;32;20421;-55
2022/01/24 09:50:15;;;;;;;0.20;0.20;;;;;;;;;;4413788;32;20432;-56
2022/01/24 09:52:47;;;;;;;0.22;0.20;;;;;;;;;;4401384;32;20084;-55
2022/01/24 09:55:16;;;;;;;0.20;0.20;;;;;;;;;;4408052;32;20116;-56
2022/01/24 09:57:47;;;;;;;0.20;0.20;;;;;;;;;;4412415;32;20073;-55
2022/01/24 10:00:20;;;;;;;0.20;0.20;;;;;;;;;;4407715;32;20050;-55
2022/01/24 10:02:50;;;;;;;0.20;0.20;;;;;;;;;;4406459;32;20057;-57
2022/01/24 10:05:30;;;;;;;2.17;0.20;;;;;;;;;;4409881;32;20041;-56
2022/01/24 10:08:19;;;;;;;0.30;0.20;;;;;;;;;;4412176;32;20053;-56
2022/01/24 10:10:50;;;;;;;0.73;0.37;;;;;;;;;;4405369;32;20073;-53
2022/01/24 10:16:37;;;;;;;0.22;0.20;;;;;;;;;;4415437;32;20039;-52
2022/01/24 10:19:10;;;;;;;0.40;0.20;;;;;;;;;;4409674;32;20070;-52
2022/01/24 10:22:00;;;;;;;0.40;0.22;;;;;;;;;;4408210;32;20054;-55
2022/01/24 10:24:44;;;;;;;1.73;0.30;;;;;;;;;;4402446;32;20057;-56
2022/01/24 10:27:13;;;;;;;0.20;0.20;;;;;;;;;;4402981;32;20053;-53
2022/01/24 10:29:45;;;;;;;1.42;0.40;;;;;;;;;;4414741;32;20038;-54
2022/01/24 10:32:32;;;;;;;2.80;0.30;;;;;;;;;;4406731;32;20085;-53
2022/01/24 10:35:20;;;;;;;2.40;0.40;;;;;;;;;;4405212;32;20039;-54
2022/01/24 10:37:51;;;;;;;1.55;0.35;;;;;;;;;;4414747;32;20094;-54
2022/01/24 10:41:07;;;;;;;0.20;0.20;;;;;;;;;;4407246;32;20057;-54
2022/01/24 10:43:37;;;;;;;0.70;0.30;;;;;;;;;;4411247;32;20380;-55
2022/01/24 10:46:06;;;;;;;0.30;0.30;;;;;;;;;;4404926;32;20038;-53
2022/01/24 10:48:45;;;;;;;0.40;0.30;;;;;;;;;;4403572;32;20078;-54
2022/01/24 10:51:16;;;;;;;0.20;0.20;;;;;;;;;;4411621;32;20101;-56
2022/01/24 10:53:44;;;;;;;0.28;0.22;;;;;;;;;;4418064;32;20077;-52
2022/01/24 10:56:29;;;;;;;0.20;0.20;;;;;;;;;;4408626;32;20058;-55
2022/01/24 10:59:03;;;;;;;0.30;0.30;;;;;;;;;;4409492;32;20035;-56
2022/01/24 11:01:34;;;;;;;0.20;0.20;;;;;;;;;;4412425;32;20039;-57
2022/01/24 11:04:05;;;;;;;1.75;0.20;;;;;;;;;;4413848;32;20074;-53
2022/01/24 11:06:35;;;;;;;0.73;0.20;;;;;;;;;;4413081;32;20086;-56
2022/01/24 11:09:11;;;;;;;0.40;0.40;;;;;;;;;;4408720;32;20101;-52
2022/01/24 11:11:39;;;;;;;0.68;0.37;;;;;;;;;;4415453;32;20056;-54
2022/01/24 11:14:09;;;;;;;0.60;0.30;;;;;;;;;;4406256;32;20098;-55
2022/01/24 11:16:38;;;;;;;2.05;0.30;;;;;;;;;;4413694;32;21731;-54
2022/01/24 11:19:56;;;;;;;0.57;0.30;;;;;;;;;;4407798;32;20062;-54
2022/01/24 11:22:00;;;;;;;0.60;0.30;;;;;;;;;;4405002;32;20060;-54
2022/01/24 11:25:14;;;;;;;0.30;0.30;;;;;;;;;;4410688;32;20102;-56
2022/01/24 11:27:35;;;;;;;0.40;0.40;;;;;;;;;;4412881;32;20077;-56
2022/01/24 11:30:07;;;;;;;1.17;0.40;;;;;;;;;;4406981;32;20086;-52
2022/01/24 11:32:51;;;;;;;0.30;0.30;;;;;;;;;;4410921;32;20098;-54
2022/01/24 11:35:39;;;;;;;1.83;0.43;;;;;;;;;;4414475;32;20035;-55
2022/01/24 11:38:26;;;;;;;0.73;0.30;;;;;;;;;;4411116;32;20062;-55
2022/01/24 11:41:00;;;;;;;0.60;0.30;;;;;;;;;;4410391;32;20094;-55
2022/01/24 11:43:32;;;;;;;2.50;0.30;;;;;;;;;;4411326;32;20034;-55
2022/01/24 11:46:04;;;;;;;1.85;0.50;;;;;;;;;;4411666;32;20045;-55
2022/01/24 11:48:34;;;;;;;0.40;0.30;;;;;;;;;;4410363;32;20436;-53
2022/01/24 11:51:05;;;;;;;0.30;0.30;;;;;;;;;;4410159;32;20030;-55
2022/01/24 11:53:37;;;;;;;0.55;0.25;;;;;;;;;;4409800;32;20050;-54
2022/01/24 11:56:17;;;;;;;0.50;0.28;;;;;;;;;;4409528;32;20084;-56
2022/01/24 11:58:46;;;;;;;0.50;0.25;;;;;;;;;;4413837;32;20050;-56
2022/01/24 12:01:33;;;;;;;0.40;0.40;;;;;;;;;;4414406;32;20135;-55
2022/01/24 12:04:03;;;;;;;0.35;0.30;;;;;;;;;;4415390;32;20088;-55
2022/01/24 12:06:51;;;;;;;0.68;0.40;;;;;;;;;;4413458;32;20038;-55
2022/01/24 12:09:24;;;;;;;0.75;0.40;;;;;;;;;;4417611;32;20060;-56
2022/01/24 12:11:53;;;;;;;1.08;0.40;;;;;;;;;;4417275;32;20451;-55
2022/01/24 12:14:40;;;;;;;1.95;0.30;;;;;;;;;;4417284;32;20085;-54
2022/01/24 12:17:10;;;;;;;3.27;0.40;;;;;;;;;;4411498;32;20460;-53
2022/01/24 12:19:39;;;;;;;0.30;0.30;;;;;;;;;;4412555;32;20042;-55
2022/01/24 12:22:43;;;;;;;0.37;0.30;;;;;;;;;;4414523;32;20073;-54
2022/01/24 12:25:12;;;;;;;0.37;0.37;;;;;;;;;;4375457;32;20114;-53
2022/01/24 12:28:00;;;;;;;0.70;0.40;;;;;;;;;;4413399;32;20109;-54
2022/01/24 12:30:47;;;;;;;0.37;0.30;;;;;;;;;;4411968;32;20456;-53
2022/01/24 12:33:28;;;;;;;0.73;0.37;;;;;;;;;;4410028;32;21664;-54
2022/01/24 12:35:57;;;;;;;0.85;0.30;;;;;;;;;;4409271;32;20451;-53
2022/01/24 12:38:26;;;;;;;1.00;0.40;;;;;;;;;;4418039;32;20430;-52
2022/01/24 12:41:12;;;;;;;0.30;0.30;;;;;;;;;;4413527;32;20042;-54
2022/01/24 12:43:55;;;;;;;0.95;0.50;;;;;;;;;;4417337;32;20043;-55
2022/01/24 12:46:25;;;;;;;1.35;0.43;;;;;;;;;;4415677;32;20046;-55
2022/01/24 12:48:56;;;;;;;1.12;0.47;;;;;;;;;;4409845;32;20050;-56
2022/01/24 12:51:24;;;;;;;0.32;0.30;;;;;;;;;;4419219;32;20074;-55
2022/01/24 12:53:53;;;;;;;0.62;0.40;;;;;;;;;;4406835;32;20058;-55
2022/01/24 12:56:27;;;;;;;2.53;0.40;;;;;;;;;;4409935;32;20411;-56
2022/01/24 12:58:55;;;;;;;0.75;0.43;;;;;;;;;;4408021;32;20086;-55
2022/01/24 13:01:28;;;;;;;0.85;0.32;;;;;;;;;;4405872;32;20464;-54
2022/01/24 13:04:02;;;;;;;0.60;0.30;;;;;;;;;;4402624;32;20046;-56
2022/01/24 13:06:33;;;;;;;0.50;0.40;;;;;;;;;;4403837;32;20041;-55
2022/01/24 13:09:11;;;;;;;0.37;0.30;;;;;;;;;;4401107;32;20082;-57
2022/01/24 13:11:54;;;;;;;0.90;0.35;;;;;;;;;;4404036;32;20097;-54
2022/01/24 13:14:29;;;;;;;1.65;0.40;;;;;;;;;;4410293;32;20374;-56
2022/01/24 13:22:57;;;;;;;1.67;0.40;;;;;;;;;;4407934;32;20064;-56
2022/01/24 13:25:27;;;;;;;3.30;0.50;;;;;;;;;;4411403;32;20069;-55
2022/01/24 13:27:57;;;;;;;1.27;0.43;;;;;;;;;;4415190;32;20357;-53
2022/01/24 13:30:25;;;;;;;0.50;0.40;;;;;;;;;;4410127;32;20462;-54
2022/01/24 13:32:55;;;;;;;0.60;0.40;;;;;;;;;;4405227;32;20027;-53
2022/01/24 13:35:28;;;;;;;1.20;0.40;;;;;;;;;;4410321;32;20046;-56
2022/01/24 13:38:06;;;;;;;2.60;0.45;;;;;;;;;;4408954;32;20402;-55
2022/01/24 13:40:35;;;;;;;4.07;0.40;;;;;;;;;;4409031;32;20065;-54
2022/01/24 13:43:04;;;;;;;3.03;0.50;;;;;;;;;;4409195;32;20414;-54
2022/01/24 13:45:36;;;;;;;2.60;0.70;;;;;;;;;;4413231;32;20040;-56
2022/01/24 13:48:06;;;;;;;4.30;0.70;;;;;;;;;;4417529;32;20088;-52
2022/01/24 13:50:34;;;;;;;1.58;0.77;;;;;;;;;;4411691;32;20030;-55
2022/01/24 13:53:03;;;;;;;2.80;1.20;;;;;;;;;;4409094;32;20362;-55
2022/01/24 13:55:41;;;;;;;1.05;0.80;;;;;;;;;;4417312;32;20034;-55
2022/01/24 13:58:10;;;;;;;3.50;1.08;;;;;;;;;;4405616;32;20034;-53
2022/01/24 14:00:42;;;;;;;3.30;1.10;;;;;;;;;;4414852;32;20377;-55
2022/01/24 14:03:11;;;;;;;1.42;0.90;;;;;;;;;;4409733;32;20373;-55
2022/01/24 14:06:10;;;;;;;2.62;1.15;;;;;;;;;;4413217;32;20038;-56
2022/01/24 14:08:43;;;;;;;2.05;0.93;;;;;;;;;;4411902;32;20069;-52
2022/01/24 14:11:17;;;;;;;2.17;0.98;;;;;;;;;;4414637;32;20069;-53
2022/01/24 14:14:00;;;;;;;3.15;1.12;;;;;;;;;;4406169;32;20481;-53
2022/01/24 14:19:31;;;;;;;1.52;1.10;;;;;;;;;;4405944;32;20421;-54
2022/01/24 14:22:00;;;;;;;1.55;0.93;;;;;;;;;;4403653;32;20031;-55
2022/01/24 14:24:45;;;;;;;2.12;1.08;;;;;;;;;;4414108;32;20211;-55
2022/01/24 14:27:15;;;;;;;1.62;1.08;;;;;;;;;;4405599;32;20046;-56
2022/01/24 14:29:43;;;;;;;4.12;1.23;;;;;;;;;;4407771;32;20062;-53
2022/01/24 14:32:13;;;;;;;2.70;0.95;;;;;;;;;;4401450;32;20420;-57
2022/01/24 14:34:42;;;;;;;2.62;1.10;;;;;;;;;;4402541;32;20102;-55
2022/01/24 14:37:10;;;;;;;2.28;1.20;;;;;;;;;;4405835;32;20042;-53
2022/01/24 14:39:47;;;;;;;2.78;1.12;;;;;;;;;;4406793;32;20049;-53
2022/01/24 14:42:32;;;;;;;3.00;1.10;;;;;;;;;;4407905;32;20105;-56
2022/01/24 14:45:01;;;;;;;1.85;1.25;;;;;;;;;;4407565;32;20425;-56
2022/01/24 14:47:30;;;;;;;2.47;1.12;;;;;;;;;;4407982;32;20046;-52
2022/01/24 14:49:58;;;;;;;1.60;0.90;;;;;;;;;;4414336;32;20039;-55
2022/01/24 14:52:27;;;;;;;3.03;0.98;;;;;;;;;;4409569;32;20072;-55
2022/01/24 14:54:56;;;;;;;3.08;1.37;;;;;;;;;;4408008;32;20131;-53
2022/01/24 14:57:24;;;;;;;2.45;1.20;;;;;;;;;;4417762;32;20046;-56
2022/01/24 14:59:52;;;;;;;2.67;1.00;;;;;;;;;;4414891;32;20098;-54
2022/01/24 15:02:21;;;;;;;3.08;1.37;;;;;;;;;;4414255;32;20026;-53
2022/01/24 15:04:50;;;;;;;1.73;1.37;;;;;;;;;;4402947;32;20027;-56
2022/01/24 15:07:18;;;;;;;2.15;1.37;;;;;;;;;;4411737;32;20050;-55
2022/01/24 15:09:46;;;;;;;1.85;1.10;;;;;;;;;;4416411;32;20345;-56
2022/01/24 15:12:15;;;;;;;2.42;1.23;;;;;;;;;;4403977;32;20062;-54
2022/01/24 15:14:46;;;;;;;3.12;1.25;;;;;;;;;;4411511;32;20121;-56
2022/01/24 15:25:37;;;;;;;1.35;1.12;;;;;;;;;;4387758;32;20085;-53
2022/01/24 15:28:06;;;;;;;1.67;1.08;;;;;;;;;;4400991;32;22831;-52
2022/01/24 15:30:35;;;;;;;2.00;1.10;;;;;;;;;;4411535;32;20126;-56
2022/01/24 15:33:03;;;;;;;2.85;1.40;;;;;;;;;;4403633;32;20042;-57
2022/01/24 15:35:32;;;;;;;1.83;1.30;;;;;;;;;;4408462;32;20039;-55
2022/01/24 15:38:04;;;;;;;2.42;1.20;;;;;;;;;;4403513;32;20078;-55
2022/01/24 15:40:34;;;;;;;3.00;1.30;;;;;;;;;;4412201;32;20448;-56
2022/01/24 15:43:08;;;;;;;3.70;1.52;;;;;;;;;;4416479;32;20065;-54
2022/01/24 15:45:57;;;;;;;1.95;1.12;;;;;;;;;;4408073;32;20119;-56
2022/01/24 15:48:25;;;;;;;1.85;1.15;;;;;;;;;;4409076;32;20049;-56
2022/01/24 15:50:54;;;;;;;2.08;1.40;;;;;;;;;;4413655;32;20369;-53
2022/01/24 15:53:23;;;;;;;2.20;1.27;;;;;;;;;;4416751;32;20057;-55
2022/01/24 15:56:14;;;;;;;3.42;1.65;;;;;;;;;;4416010;32;20042;-53
2022/01/24 15:58:39;;;;;;;1.80;1.10;;;;;;;;;;4399986;32;20049;-53
2022/01/24 16:01:08;;;;;;;3.65;1.33;;;;;;;;;;4415970;32;20034;-53
2022/01/24 16:03:37;;;;;;;1.70;1.25;;;;;;;;;;4405336;32;20100;-55
2022/01/24 16:06:05;;;;;;;1.85;1.30;;;;;;;;;;4415319;32;20039;-56
2022/01/24 16:08:33;;;;;;;1.98;1.25;;;;;;;;;;4405256;32;20366;-55
2022/01/24 16:11:02;;;;;;;2.97;1.35;;;;;;;;;;4413471;32;20351;-57
2022/01/24 16:13:32;;;;;;;1.83;1.37;;;;;;;;;;4411894;32;20088;-54
2022/01/24 16:16:01;;;;;;;1.50;1.27;;;;;;;;;;4403466;32;20132;-54
2022/01/24 16:18:31;;;;;;;2.55;1.50;;;;;;;;;;4411036;32;20035;-54
2022/01/24 16:23:46;;;;;;;2.97;1.70;;;;;;;;;;4408955;32;20339;-55
2022/01/24 16:26:15;;;;;;;3.37;1.20;;;;;;;;;;4407303;32;20042;-54
2022/01/24 16:28:44;;;;;;;3.67;1.48;;;;;;;;;;4408498;32;20326;-57
2022/01/24 16:31:13;;;;;;;1.55;1.23;;;;;;;;;;4408738;32;20366;-54
2022/01/24 16:33:41;;;;;;;3.42;1.40;;;;;;;;;;4417604;32;20030;-54
2022/01/24 16:36:12;;;;;;;3.08;1.20;;;;;;;;;;4405867;32;20114;-54
2022/01/24 16:38:42;;;;;;;1.98;1.35;;;;;;;;;;4417050;32;20066;-53
2022/01/24 16:41:18;;;;;;;2.35;1.30;;;;;;;;;;4418754;32;20026;-55
2022/01/24 16:49:18;;;;;;;3.20;1.33;;;;;;;;;;4412295;32;20054;-52
2022/01/24 16:51:47;;;;;;;2.22;1.12;;;;;;;;;;4404374;32;20074;-55
2022/01/24 16:54:15;;;;;;;2.65;1.40;;;;;;;;;;4413548;32;20042;-52
2022/01/24 16:56:46;;;;;;;1.80;1.42;;;;;;;;;;4405000;32;20034;-54
2022/01/24 16:59:15;;;;;;;3.20;1.45;;;;;;;;;;4406229;32;20064;-52
2022/01/24 17:01:45;;;;;;;3.05;1.45;;;;;;;;;;4412323;32;20054;-52
2022/01/24 17:04:13;;;;;;;2.10;1.40;;;;;;;;;;4402105;32;20038;-52
2022/01/24 17:06:42;;;;;;;2.03;1.30;;;;;;;;;;4411455;32;20034;-51
2022/01/24 17:09:12;;;;;;;2.75;1.37;;;;;;;;;;4407661;32;20048;-55
2022/01/24 17:11:44;;;;;;;2.47;1.40;;;;;;;;;;4410246;32;20073;-55
2022/01/24 17:14:15;;;;;;;3.30;1.20;;;;;;;;;;4412042;32;20042;-55
2022/01/24 17:16:45;;;;;;;2.60;1.35;;;;;;;;;;4414567;32;20116;-51
2022/01/24 17:19:14;;;;;;;2.28;1.30;;;;;;;;;;4409154;32;20064;-51
2022/01/24 17:21:44;;;;;;;4.03;1.45;;;;;;;;;;4413516;32;20424;-50